Time;durP1;ratioP1;P1;durP2;ratioP2;P2;SDS_P1;SDS_P2;PMS_P1;PMS_P2;Temp;Humidity;BMP_temperature;BMP_pressure;BME280_temperature;BME280_humidity;BME280_pressure;Samples;Min_cycle;Max_cycle;Signal;HPM_P1;HPM_P2
2023/11/06 00:00:31;;;;;;;2.83;1.42;;;;;;;20.91;45.13;99036.97;5026011;28;20033;-73
2023/11/06 00:02:58;;;;;;;2.33;1.25;;;;;;;20.91;45.19;99047.53;5020933;28;20045;-73
2023/11/06 00:05:24;;;;;;;2.10;1.33;;;;;;;20.89;45.37;99054.91;5026650;28;20119;-73
2023/11/06 00:07:50;;;;;;;2.50;1.38;;;;;;;20.66;45.50;99015.22;5023541;28;20125;-73
2023/11/06 00:10:15;;;;;;;2.70;1.55;;;;;;;20.88;45.38;99060.44;5025830;28;20662;-73
2023/11/06 00:12:41;;;;;;;4.95;1.75;;;;;;;20.86;45.36;99063.31;5022524;28;20035;-73
2023/11/06 00:15:09;;;;;;;1.92;1.25;;;;;;;20.86;45.38;99059.84;5027865;28;20038;-73
2023/11/06 00:17:36;;;;;;;2.83;1.30;;;;;;;20.75;45.29;99062.25;5022569;28;20033;-73
2023/11/06 00:20:03;;;;;;;1.77;1.42;;;;;;;20.83;45.30;99074.34;5024262;28;20056;-71
2023/11/06 00:22:30;;;;;;;1.58;1.02;;;;;;;20.78;45.17;99058.34;5024086;28;20072;-73
2023/11/06 00:24:56;;;;;;;2.65;1.70;;;;;;;20.83;45.14;99077.00;5023222;28;20120;-73
2023/11/06 00:27:25;;;;;;;1.90;1.50;;;;;;;20.79;45.29;99078.47;5025830;28;20037;-73
2023/11/06 00:29:51;;;;;;;1.90;1.35;;;;;;;20.82;45.39;99093.88;5029479;28;20546;-73
2023/11/06 00:32:16;;;;;;;2.90;1.58;;;;;;;20.80;45.11;99091.47;5030708;28;20120;-73
2023/11/06 00:34:43;;;;;;;3.47;1.30;;;;;;;20.79;45.30;99103.06;5019470;28;20434;-73
2023/11/06 00:37:09;;;;;;;2.00;1.48;;;;;;;20.57;45.13;99072.09;5034734;28;20029;-73
2023/11/06 00:39:37;;;;;;;1.45;1.17;;;;;;;20.73;45.22;99100.53;5030790;28;20088;-73
2023/11/06 00:42:07;;;;;;;2.80;1.48;;;;;;;20.68;45.19;99090.66;5049342;28;20507;-73
2023/11/06 00:44:33;;;;;;;;;;;;;;;20.77;45.34;99113.06;5025516;28;20046;-73
2023/11/06 00:46:58;;;;;;;2.63;1.52;;;;;;;20.77;45.22;99112.28;5026370;28;19917;-73
2023/11/06 00:49:25;;;;;;;2.97;1.40;;;;;;;20.52;45.15;99078.88;5021367;28;20061;-73
2023/11/06 00:51:50;;;;;;;1.48;1.27;;;;;;;20.59;45.32;99094.63;5026919;28;20057;-72
2023/11/06 00:54:16;;;;;;;1.83;1.20;;;;;;;20.73;45.30;99119.88;5022816;28;20026;-73
2023/11/06 00:56:42;;;;;;;1.50;1.10;;;;;;;20.52;45.28;99086.00;5021312;28;20854;-73
2023/11/06 00:59:08;;;;;;;2.95;1.40;;;;;;;20.66;45.26;99105.94;5038848;28;20111;-73
2023/11/06 01:01:33;;;;;;;2.67;1.70;;;;;;;20.66;45.25;99116.53;5027919;28;20041;-73
2023/11/06 01:03:59;;;;;;;1.63;1.23;;;;;;;20.72;45.15;99138.59;5017394;28;20049;-73
2023/11/06 01:06:25;;;;;;;1.92;1.30;;;;;;;20.67;45.27;99119.97;5029845;28;20053;-73
2023/11/06 01:08:50;;;;;;;1.65;1.35;;;;;;;20.71;45.30;99139.66;5026069;28;20047;-72
2023/11/06 01:11:16;;;;;;;1.88;1.60;;;;;;;20.68;45.25;99135.63;5029740;28;20168;-73
2023/11/06 01:13:42;;;;;;;2.40;1.63;;;;;;;20.68;45.28;99142.75;5024860;28;20584;-73
2023/11/06 01:16:08;;;;;;;2.85;1.77;;;;;;;20.56;45.38;99124.19;5024474;28;20099;-73
2023/11/06 01:18:34;;;;;;;2.40;1.50;;;;;;;20.67;45.28;99159.66;5030998;28;20064;-74
2023/11/06 01:20:59;;;;;;;2.15;1.50;;;;;;;20.65;45.51;99154.59;5029683;28;20093;-73
2023/11/06 01:23:25;;;;;;;1.35;1.23;;;;;;;20.63;45.30;99159.25;5008275;28;20105;-72
2023/11/06 01:25:50;;;;;;;1.83;1.50;;;;;;;20.60;45.17;99156.28;5030364;28;20033;-73
2023/11/06 01:28:16;;;;;;;2.72;1.70;;;;;;;20.66;45.22;99172.06;5025324;28;20708;-73
2023/11/06 01:30:42;;;;;;;1.77;1.40;;;;;;;20.63;45.42;99172.50;5025047;28;20033;-73
2023/11/06 01:33:07;;;;;;;2.33;1.75;;;;;;;20.63;45.35;99183.06;5024034;28;20038;-72
2023/11/06 01:35:33;;;;;;;4.68;1.55;;;;;;;20.63;45.44;99167.19;5019266;28;20301;-72
2023/11/06 01:38:00;;;;;;;2.15;1.35;;;;;;;20.64;45.23;99174.09;5028343;28;20536;-73
2023/11/06 01:40:30;;;;;;;1.75;1.38;;;;;;;20.63;45.27;99183.06;5030487;28;20527;-73
2023/11/06 01:42:55;;;;;;;2.17;1.40;;;;;;;20.55;45.17;99175.47;5024754;28;20033;-73
2023/11/06 01:45:21;;;;;;;2.97;1.67;;;;;;;20.61;45.41;99194.91;5011843;28;20037;-72
2023/11/06 01:47:47;;;;;;;1.73;1.40;;;;;;;20.60;45.38;99207.31;5021338;28;20064;-73
2023/11/06 01:50:14;;;;;;;1.85;1.35;;;;;;;20.56;45.16;99203.50;5022180;28;20437;-72
2023/11/06 01:52:40;;;;;;;1.75;1.30;;;;;;;20.59;45.25;99216.28;5014163;28;20030;-72
2023/11/06 01:55:06;;;;;;;1.85;1.42;;;;;;;20.60;45.25;99212.59;5019487;28;20095;-73
2023/11/06 01:57:33;;;;;;;2.38;1.42;;;;;;;20.52;45.15;99203.16;5006413;28;20034;-73
2023/11/06 01:59:59;;;;;;;2.85;1.40;;;;;;;20.57;45.16;99204.31;5027369;28;20064;-71
2023/11/06 02:02:27;;;;;;;1.55;1.20;;;;;;;20.56;45.44;99208.81;4993043;28;20042;-73
2023/11/06 02:04:53;;;;;;;1.65;1.20;;;;;;;20.57;45.25;99209.59;5024098;28;20111;-73
2023/11/06 02:07:19;;;;;;;2.00;1.30;;;;;;;20.52;45.20;99202.34;5020717;28;20099;-73
2023/11/06 02:09:45;;;;;;;2.00;1.40;;;;;;;20.51;45.21;99203.38;5018858;28;20876;-73
2023/11/06 02:12:11;;;;;;;2.45;1.42;;;;;;;20.53;45.28;99203.97;5020410;28;20041;-72
2023/11/06 02:14:50;;;;;;;1.83;1.48;;;;;;;20.48;45.21;99211.78;5022715;28;20055;-73
2023/11/06 02:17:16;;;;;;;1.83;1.00;;;;;;;20.52;45.38;99224.31;5017025;28;20041;-72
2023/11/06 02:19:42;;;;;;;2.80;1.67;;;;;;;20.53;45.30;99235.69;5021282;28;20033;-72
2023/11/06 02:22:10;;;;;;;2.80;1.30;;;;;;;20.53;45.23;99230.41;5023482;28;20515;-73
2023/11/06 02:24:39;;;;;;;4.07;1.40;;;;;;;20.49;45.35;99227.41;5028561;28;20195;-73
2023/11/06 02:27:05;;;;;;;2.53;1.60;;;;;;;20.42;45.30;99226.66;5029078;28;20036;-73
2023/11/06 02:29:31;;;;;;;2.30;1.40;;;;;;;20.45;45.40;99242.09;5027067;28;20563;-71
2023/11/06 02:31:57;;;;;;;2.20;1.50;;;;;;;20.39;45.40;99231.56;5030808;28;20156;-73
2023/11/06 02:34:23;;;;;;;1.45;1.23;;;;;;;20.52;45.19;99252.59;5024416;28;20713;-72
2023/11/06 02:36:49;;;;;;;1.65;1.30;;;;;;;20.45;45.18;99239.44;5026512;28;20049;-73
2023/11/06 02:39:14;;;;;;;1.23;1.15;;;;;;;20.49;45.23;99245.13;5027474;28;20055;-73
2023/11/06 02:41:40;;;;;;;1.55;1.45;;;;;;;20.41;45.13;99237.47;5022269;28;20056;-71
2023/11/06 02:44:06;;;;;;;3.28;1.55;;;;;;;20.45;45.32;99246.56;5022365;28;20045;-72
2023/11/06 02:46:32;;;;;;;1.17;1.08;;;;;;;20.45;45.20;99242.09;5023767;28;20051;-72
2023/11/06 02:48:58;;;;;;;1.50;1.30;;;;;;;20.46;45.27;99248.97;5015329;28;20045;-72
2023/11/06 02:51:24;;;;;;;1.92;1.35;;;;;;;20.48;45.16;99251.44;5016541;28;20128;-72
2023/11/06 02:53:50;;;;;;;1.65;1.25;;;;;;;20.47;45.33;99260.41;5023706;28;20144;-72
2023/11/06 02:56:15;;;;;;;1.52;1.30;;;;;;;20.41;45.31;99255.97;5022784;28;20050;-73
2023/11/06 02:58:41;;;;;;;3.75;1.70;;;;;;;20.41;45.26;99245.41;5012824;28;20029;-72
2023/11/06 03:01:07;;;;;;;1.75;1.33;;;;;;;20.36;45.21;99240.75;5021098;28;20049;-73
2023/11/06 03:03:34;;;;;;;2.25;1.42;;;;;;;20.45;45.23;99262.44;5026931;28;20041;-72
2023/11/06 03:05:59;;;;;;;1.83;1.40;;;;;;;20.44;45.30;99268.75;5025703;28;20067;-73
2023/11/06 03:08:25;;;;;;;1.48;1.38;;;;;;;20.28;45.39;99259.53;5023319;28;20037;-72
2023/11/06 03:10:50;;;;;;;1.42;1.15;;;;;;;20.43;45.28;99285.63;5022552;28;20041;-73
2023/11/06 03:13:17;;;;;;;1.92;1.27;;;;;;;20.40;45.32;99292.16;5019403;28;20033;-72
2023/11/06 03:15:43;;;;;;;3.08;1.50;;;;;;;20.22;45.25;99266.50;5020261;28;20032;-73
2023/11/06 03:18:09;;;;;;;2.30;1.67;;;;;;;20.41;45.27;99295.63;5023932;28;20041;-72
2023/11/06 03:20:35;;;;;;;2.17;1.42;;;;;;;20.36;45.23;99296.25;5024937;28;20068;-72
2023/11/06 03:23:01;;;;;;;1.48;1.30;;;;;;;20.39;45.42;99309.03;5013291;28;20458;-72
2023/11/06 03:25:26;;;;;;;1.30;1.25;;;;;;;20.40;45.32;99315.13;5031278;28;20515;-73
2023/11/06 03:27:53;;;;;;;2.40;1.27;;;;;;;20.40;45.27;99317.78;5025516;28;20058;-72
2023/11/06 03:30:19;;;;;;;1.15;1.02;;;;;;;20.36;45.31;99319.25;5031803;28;20056;-73
2023/11/06 03:32:45;;;;;;;1.48;1.38;;;;;;;20.39;45.27;99338.13;5023494;28;20034;-72
2023/11/06 03:35:11;;;;;;;1.52;1.30;;;;;;;20.39;45.23;99332.84;5062208;28;20037;-71
2023/11/06 03:37:37;;;;;;;1.60;1.42;;;;;;;20.42;45.36;99328.97;5027573;28;20044;-72
2023/11/06 03:40:03;;;;;;;2.40;1.30;;;;;;;20.39;45.04;99322.25;5028739;28;20059;-73
2023/11/06 03:42:29;;;;;;;1.30;1.20;;;;;;;20.43;45.28;99338.50;5012280;28;20047;-72
2023/11/06 03:44:54;;;;;;;3.50;1.90;;;;;;;20.41;45.28;99332.66;5020324;28;20060;-72
2023/11/06 03:47:21;;;;;;;3.00;1.50;;;;;;;20.43;45.17;99331.41;5035067;28;20040;-72
2023/11/06 03:49:47;;;;;;;1.88;1.35;;;;;;;20.35;44.97;99315.81;5032567;28;20495;-72
2023/11/06 03:52:13;;;;;;;3.20;1.40;;;;;;;20.41;45.34;99336.09;5027314;28;20106;-73
2023/11/06 03:54:39;;;;;;;3.28;1.80;;;;;;;20.43;45.29;99331.41;5029303;28;20046;-73
2023/11/06 03:57:05;;;;;;;2.85;1.35;;;;;;;20.42;45.34;99337.72;5029689;28;21825;-72
2023/11/06 03:59:30;;;;;;;1.75;1.50;;;;;;;20.36;45.11;99332.47;5030479;28;20040;-72
2023/11/06 04:01:56;;;;;;;1.30;1.20;;;;;;;20.22;45.17;99327.31;5033211;28;20124;-73
2023/11/06 04:04:21;;;;;;;1.73;1.38;;;;;;;20.43;45.32;99352.53;5027435;28;20102;-73
2023/11/06 04:06:47;;;;;;;1.55;1.27;;;;;;;20.42;45.38;99350.13;5016232;28;20049;-73
2023/11/06 04:09:13;;;;;;;2.92;1.63;;;;;;;20.43;45.22;99349.09;5031833;28;20096;-73
2023/11/06 04:11:40;;;;;;;2.33;1.20;;;;;;;20.32;45.13;99332.09;5023329;28;20157;-72
2023/11/06 04:14:06;;;;;;;2.25;1.42;;;;;;;20.43;45.18;99351.72;5025252;28;20057;-73
2023/11/06 04:16:32;;;;;;;2.65;1.42;;;;;;;20.16;45.28;99324.75;5028006;28;20061;-71
2023/11/06 04:18:59;;;;;;;1.40;1.17;;;;;;;20.41;45.21;99359.09;5033971;28;20060;-73
2023/11/06 04:21:26;;;;;;;2.15;1.30;;;;;;;20.41;45.27;99359.09;5028042;28;20701;-72
2023/11/06 04:23:51;;;;;;;1.88;1.50;;;;;;;20.40;45.28;99366.19;5028991;28;20084;-73
2023/11/06 04:26:17;;;;;;;2.33;1.25;;;;;;;20.40;45.24;99374.09;5027643;28;20049;-73
2023/11/06 04:28:43;;;;;;;3.92;1.40;;;;;;;20.38;45.40;99373.53;5028921;28;20041;-73
2023/11/06 04:31:08;;;;;;;1.92;1.60;;;;;;;20.35;45.40;99362.56;5022300;28;20049;-73
2023/11/06 04:33:34;;;;;;;2.70;1.40;;;;;;;20.39;45.17;99375.13;5029836;28;20114;-72
2023/11/06 04:35:59;;;;;;;1.55;1.20;;;;;;;20.39;45.38;99377.78;5023660;28;20152;-72
2023/11/06 04:38:25;;;;;;;1.50;1.38;;;;;;;20.35;45.34;99370.50;5032956;28;20649;-72
2023/11/06 04:40:50;;;;;;;1.50;1.42;;;;;;;20.39;45.40;99384.91;5028017;28;20510;-72
2023/11/06 04:43:17;;;;;;;2.13;1.17;;;;;;;20.37;45.28;99369.25;5022267;28;20052;-73
2023/11/06 04:45:42;;;;;;;1.60;1.30;;;;;;;20.39;45.17;99382.25;5028250;28;20903;-72
2023/11/06 04:48:08;;;;;;;2.58;1.70;;;;;;;20.31;45.35;99374.63;5026410;28;20045;-73
2023/11/06 04:50:34;;;;;;;1.67;1.40;;;;;;;20.37;45.41;99393.06;5027843;28;20514;-73
2023/11/06 04:53:00;;;;;;;1.60;1.50;;;;;;;20.12;45.33;99348.16;5021628;28;20441;-73
2023/11/06 04:55:26;;;;;;;1.73;1.27;;;;;;;20.34;45.33;99392.69;5019692;28;20171;-73
2023/11/06 04:57:52;;;;;;;1.05;1.02;;;;;;;20.38;45.41;99402.59;5022583;28;20510;-72
2023/11/06 05:00:18;;;;;;;1.80;1.17;;;;;;;20.38;45.12;99407.88;5026711;28;20040;-73
2023/11/06 05:02:43;;;;;;;1.65;1.20;;;;;;;20.37;45.55;99413.41;5029094;28;20045;-72
2023/11/06 05:05:09;;;;;;;1.63;1.20;;;;;;;20.38;45.29;99407.88;5025465;28;20052;-71
2023/11/06 05:07:35;;;;;;;1.45;1.25;;;;;;;20.36;45.40;99417.88;5028671;28;20045;-73
2023/11/06 05:10:05;;;;;;;3.33;1.42;;;;;;;20.28;45.29;99404.09;5027124;28;20048;-73
2023/11/06 05:12:31;;;;;;;2.42;1.10;;;;;;;20.37;45.15;99424.78;5018382;28;20658;-73
2023/11/06 05:14:57;;;;;;;2.33;1.50;;;;;;;20.35;45.27;99421.53;5031912;28;20430;-72
2023/11/06 05:17:22;;;;;;;1.48;1.30;;;;;;;20.31;45.43;99415.09;5025772;28;20033;-73
2023/11/06 05:19:48;;;;;;;3.58;1.65;;;;;;;20.39;45.27;99430.66;5019102;28;20095;-72
2023/11/06 05:22:13;;;;;;;1.33;1.23;;;;;;;20.41;45.24;99428.63;5028563;28;20044;-72
2023/11/06 05:24:43;;;;;;;1.52;1.38;;;;;;;20.42;45.33;99440.81;5023174;28;20037;-72
2023/11/06 05:27:08;;;;;;;2.05;1.40;;;;;;;20.41;45.24;99443.69;5034709;28;20111;-72
2023/11/06 05:29:34;;;;;;;1.90;1.30;;;;;;;20.41;45.35;99443.69;5028607;28;20179;-72
2023/11/06 05:32:00;;;;;;;2.58;1.25;;;;;;;20.20;45.40;99416.59;5027757;28;20637;-73
2023/11/06 05:34:26;;;;;;;1.40;1.30;;;;;;;20.42;45.30;99447.94;5018436;28;20041;-72
2023/11/06 05:36:51;;;;;;;2.63;1.25;;;;;;;20.34;45.57;99438.44;5020549;28;20051;-73
2023/11/06 05:39:18;;;;;;;2.30;1.27;;;;;;;20.42;45.39;99453.25;5024054;28;20042;-72
2023/11/06 05:41:48;;;;;;;1.60;1.40;;;;;;;20.38;45.26;99457.31;5025231;28;20033;-72
2023/11/06 05:44:14;;;;;;;1.30;1.20;;;;;;;20.38;45.31;99447.56;5021495;28;20110;-72
2023/11/06 05:46:40;;;;;;;1.73;1.20;;;;;;;20.39;45.30;99462.38;5021531;28;20049;-73
2023/11/06 05:49:06;;;;;;;1.30;1.20;;;;;;;20.39;45.28;99465.03;5028436;28;20048;-72
2023/11/06 05:51:32;;;;;;;2.00;1.50;;;;;;;20.32;45.51;99459.00;5027077;28;20061;-72
2023/11/06 05:53:57;;;;;;;3.22;1.45;;;;;;;20.37;45.41;99463.63;5025623;28;20059;-72
2023/11/06 05:56:23;;;;;;;1.70;1.40;;;;;;;20.37;45.37;99477.66;5023559;28;20040;-72
2023/11/06 05:58:48;;;;;;;1.83;1.42;;;;;;;20.30;45.38;99468.16;5028281;28;20037;-73
2023/11/06 06:01:14;;;;;;;1.42;1.30;;;;;;;20.38;45.47;99484.56;5030554;28;20174;-73
2023/11/06 06:03:39;;;;;;;2.00;1.48;;;;;;;20.37;45.31;99485.59;5020334;28;20064;-73
2023/11/06 06:06:05;;;;;;;1.65;1.30;;;;;;;20.13;45.37;99463.41;5016969;28;20040;-73
2023/11/06 06:08:31;;;;;;;3.03;1.55;;;;;;;20.38;45.24;99496.97;5030642;28;20044;-72
2023/11/06 06:10:57;;;;;;;1.58;1.27;;;;;;;20.27;45.47;99490.53;5027217;28;20037;-73
2023/11/06 06:13:22;;;;;;;1.10;1.10;;;;;;;20.11;45.31;99478.69;5025380;28;20034;-72
2023/11/06 06:15:48;;;;;;;1.88;1.48;;;;;;;20.29;45.20;99503.53;5031555;28;20714;-73
2023/11/06 06:18:13;;;;;;;2.67;2.03;;;;;;;20.32;45.43;99503.94;5024215;28;20037;-73
2023/11/06 06:20:39;;;;;;;1.48;1.38;;;;;;;20.36;45.30;99510.41;5021677;28;20495;-73
2023/11/06 06:23:04;;;;;;;1.58;1.25;;;;;;;20.30;45.36;99511.28;5026097;28;20072;-72
2023/11/06 06:25:30;;;;;;;2.22;1.60;;;;;;;20.35;45.43;99511.44;5021551;28;20110;-72
2023/11/06 06:27:55;;;;;;;1.40;1.30;;;;;;;20.30;45.42;99516.56;5023692;28;20045;-72
2023/11/06 06:30:21;;;;;;;1.80;1.50;;;;;;;20.30;45.54;99515.75;5030416;28;20044;-72
2023/11/06 06:32:46;;;;;;;2.33;1.55;;;;;;;20.30;45.52;99513.13;5018268;28;20087;-73
2023/11/06 06:35:12;;;;;;;2.13;1.48;;;;;;;20.36;45.39;99530.75;5019703;28;20582;-73
2023/11/06 06:37:37;;;;;;;2.45;1.40;;;;;;;20.34;45.27;99528.31;5025194;28;20126;-72
2023/11/06 06:40:07;;;;;;;1.90;1.55;;;;;;;20.30;45.34;99519.22;5031892;28;20283;-73
2023/11/06 06:42:34;;;;;;;1.70;1.60;;;;;;;20.33;45.34;99524.06;5025803;28;20076;-73
2023/11/06 06:45:00;;;;;;;2.35;1.30;;;;;;;20.26;45.40;99514.53;5028053;28;20041;-72
2023/11/06 06:47:25;;;;;;;1.98;1.40;;;;;;;20.33;45.50;99531.19;5021718;28;20082;-73
2023/11/06 06:49:51;;;;;;;1.70;1.38;;;;;;;20.32;45.42;99527.72;5026040;28;20037;-72
2023/11/06 06:52:17;;;;;;;2.15;1.58;;;;;;;20.23;45.40;99523.72;5030284;28;20146;-71
2023/11/06 06:54:42;;;;;;;2.53;1.60;;;;;;;20.32;45.48;99533.03;5028578;28;20128;-72
2023/11/06 06:57:08;;;;;;;2.30;1.65;;;;;;;20.32;45.29;99535.66;5030585;28;20090;-72
2023/11/06 06:59:34;;;;;;;2.60;1.50;;;;;;;20.33;45.55;99542.56;5034251;28;20041;-73
2023/11/06 07:01:59;;;;;;;1.73;1.60;;;;;;;20.33;45.54;99542.56;5031049;28;20063;-71
2023/11/06 07:04:25;;;;;;;1.63;1.52;;;;;;;20.31;45.35;99541.16;5029706;28;20045;-73
2023/11/06 07:06:51;;;;;;;1.67;1.45;;;;;;;20.34;45.43;99548.66;5028818;28;20430;-73
2023/11/06 07:09:17;;;;;;;1.90;1.42;;;;;;;20.34;45.33;99540.72;5024305;28;20037;-72
2023/11/06 07:11:43;;;;;;;1.52;1.42;;;;;;;20.33;45.47;99542.56;5022425;28;20047;-72
2023/11/06 07:14:09;;;;;;;1.70;1.60;;;;;;;20.26;45.40;99538.34;5032881;28;20047;-73
2023/11/06 07:16:34;;;;;;;2.38;1.60;;;;;;;20.42;45.25;99546.59;5028514;28;20045;-73
2023/11/06 07:19:00;;;;;;;2.20;1.60;;;;;;;20.62;44.74;99558.84;5028155;28;20076;-73
2023/11/06 07:21:25;;;;;;;1.50;1.25;;;;;;;21.32;44.29;99540.94;5032679;28;20067;-73
2023/11/06 07:23:51;;;;;;;1.67;1.27;;;;;;;22.25;41.93;99541.41;5026766;28;20053;-73
2023/11/06 07:26:17;;;;;;;2.70;1.50;;;;;;;22.46;41.85;99544.59;5039025;28;20036;-73
2023/11/06 07:28:42;;;;;;;1.63;1.30;;;;;;;22.35;42.09;99548.84;5030684;28;20471;-73
2023/11/06 07:31:08;;;;;;;1.55;1.40;;;;;;;22.13;42.38;99556.50;5028899;28;20045;-72
2023/11/06 07:33:34;;;;;;;1.30;1.08;;;;;;;21.94;43.01;99562.84;5028268;28;20037;-71
2023/11/06 07:35:59;;;;;;;1.90;1.45;;;;;;;21.75;43.38;99561.25;5025502;28;20041;-73
2023/11/06 07:38:25;;;;;;;2.67;1.42;;;;;;;21.58;43.69;99567.16;5024022;28;20063;-72
2023/11/06 07:40:51;;;;;;;2.63;1.60;;;;;;;21.50;43.55;99580.66;5025225;28;20048;-73
2023/11/06 07:43:16;;;;;;;1.20;1.10;;;;;;;21.42;44.11;99588.91;5019990;28;20033;-73
2023/11/06 07:45:42;;;;;;;1.63;1.52;;;;;;;21.36;44.34;99595.06;5029378;28;20038;-73
2023/11/06 07:48:08;;;;;;;2.33;1.40;;;;;;;21.29;44.42;99599.63;5027392;28;20041;-72
2023/11/06 07:50:33;;;;;;;2.55;1.33;;;;;;;21.24;44.44;99588.88;5029152;28;20049;-73
2023/11/06 07:53:00;;;;;;;1.27;1.13;;;;;;;21.20;44.48;99607.03;5025697;28;20045;-72
2023/11/06 07:55:25;;;;;;;1.98;1.45;;;;;;;21.18;44.53;99627.59;5026866;28;20415;-73
2023/11/06 07:57:51;;;;;;;1.50;1.40;;;;;;;21.12;44.66;99621.34;5027233;28;20052;-73
2023/11/06 08:00:16;;;;;;;2.67;1.45;;;;;;;21.09;44.82;99637.66;5026058;28;20041;-73
2023/11/06 08:02:42;;;;;;;2.80;1.52;;;;;;;21.12;44.72;99642.50;5028396;28;20110;-73
2023/11/06 08:05:09;;;;;;;2.53;1.60;;;;;;;21.11;44.57;99648.03;5024554;28;20099;-73
2023/11/06 08:07:35;;;;;;;1.30;1.20;;;;;;;21.07;44.77;99633.63;5025318;28;20033;-71
2023/11/06 08:10:01;;;;;;;1.73;1.40;;;;;;;21.08;44.88;99651.94;5026567;28;20033;-71
2023/11/06 08:12:26;;;;;;;1.20;1.10;;;;;;;21.06;44.96;99659.28;5018486;28;20033;-71
2023/11/06 08:14:52;;;;;;;1.75;1.30;;;;;;;21.04;44.81;99661.31;5026201;28;20038;-70
2023/11/06 08:17:17;;;;;;;1.67;1.27;;;;;;;21.00;44.97;99648.72;5028995;28;20048;-72
2023/11/06 08:19:43;;;;;;;2.15;1.40;;;;;;;21.04;44.87;99657.88;5027365;28;20061;-72
2023/11/06 08:22:09;;;;;;;1.95;1.35;;;;;;;20.96;44.71;99643.06;5031773;28;20048;-71
2023/11/06 08:24:38;;;;;;;2.00;1.55;;;;;;;21.03;44.96;99669.50;5026229;28;20514;-71
2023/11/06 08:27:04;;;;;;;1.65;1.48;;;;;;;20.93;44.70;99659.38;5019272;28;20772;-71
2023/11/06 08:29:30;;;;;;;1.40;1.30;;;;;;;20.96;44.72;99668.72;5026825;28;20129;-71
2023/11/06 08:31:59;;;;;;;1.10;1.00;;;;;;;21.01;44.79;99679.47;5019467;28;20398;-71
2023/11/06 08:34:26;;;;;;;1.95;1.40;;;;;;;20.89;44.64;99658.19;5010896;28;20037;-72
2023/11/06 08:36:51;;;;;;;1.60;1.20;;;;;;;21.00;44.82;99685.78;5020591;28;20044;-71
2023/11/06 08:39:20;;;;;;;1.63;1.40;;;;;;;20.98;44.93;99680.69;5025358;28;20033;-70
2023/11/06 08:41:45;;;;;;;1.45;1.33;;;;;;;20.86;45.00;99674.50;5024477;28;20048;-71
2023/11/06 08:44:11;;;;;;;1.58;1.30;;;;;;;20.98;44.96;99691.28;5022933;28;20046;-71
2023/11/06 08:46:36;;;;;;;1.92;1.23;;;;;;;20.97;44.90;99699.44;5026750;28;20045;-71
2023/11/06 08:49:02;;;;;;;1.65;1.55;;;;;;;20.97;44.99;99700.25;5020239;28;20487;-70
2023/11/06 08:51:33;;;;;;;2.70;1.50;;;;;;;20.95;45.05;99704.13;5023154;28;20038;-71
2023/11/06 08:53:59;;;;;;;3.15;1.60;;;;;;;20.85;44.99;99682.66;5009797;28;20068;-71
2023/11/06 08:56:26;;;;;;;1.50;1.40;;;;;;;20.96;45.04;99703.91;5023022;28;20045;-71
2023/11/06 08:58:52;;;;;;;1.40;1.30;;;;;;;20.98;44.89;99701.06;5027677;28;20684;-71
2023/11/06 09:01:17;;;;;;;2.55;1.50;;;;;;;20.94;44.73;99707.81;5027929;28;20048;-70
2023/11/06 09:03:43;;;;;;;1.30;1.20;;;;;;;20.92;44.94;99694.78;5034774;28;20041;-71
2023/11/06 09:06:10;;;;;;;2.28;1.27;;;;;;;20.94;44.71;99697.22;5019044;28;20048;-71
2023/11/06 09:08:36;;;;;;;1.50;1.40;;;;;;;20.93;44.89;99714.94;5005712;28;20120;-71
2023/11/06 09:11:02;;;;;;;2.70;1.40;;;;;;;20.91;44.87;99714.34;5027344;28;20038;-71
2023/11/06 09:13:31;;;;;;;1.40;1.30;;;;;;;20.93;44.71;99722.88;5028808;28;20048;-71
2023/11/06 09:15:57;;;;;;;1.60;1.50;;;;;;;20.92;44.81;99723.91;5026086;28;20483;-71
2023/11/06 09:18:22;;;;;;;3.20;1.40;;;;;;;20.94;44.72;99723.69;5034811;28;20048;-69
2023/11/06 09:20:48;;;;;;;1.52;1.40;;;;;;;21.03;44.67;99723.22;5024329;28;20041;-69
2023/11/06 09:23:14;;;;;;;2.00;1.25;;;;;;;21.07;44.70;99716.47;5022531;28;20064;-70
2023/11/06 09:25:40;;;;;;;2.03;1.50;;;;;;;21.10;44.58;99713.41;5026615;28;20044;-69
2023/11/06 09:28:06;;;;;;;2.53;1.60;;;;;;;21.12;44.41;99713.19;5031758;28;20036;-70
2023/11/06 09:30:31;;;;;;;2.65;1.50;;;;;;;21.18;44.46;99733.50;5018011;28;20522;-69
2023/11/06 09:32:57;;;;;;;1.65;1.30;;;;;;;21.16;44.63;99721.50;5026916;28;20030;-70
2023/11/06 09:35:24;;;;;;;3.22;1.55;;;;;;;21.12;44.78;99724.56;5027139;28;20040;-70
2023/11/06 09:37:49;;;;;;;1.83;1.20;;;;;;;21.09;44.47;99721.56;5009707;28;20614;-70
2023/11/06 09:40:21;;;;;;;2.35;1.50;;;;;;;21.15;44.67;99723.34;5029310;28;20103;-70
2023/11/06 09:42:47;;;;;;;1.45;1.35;;;;;;;21.15;44.74;99739.22;5027416;28;20025;-70
2023/11/06 09:45:14;;;;;;;1.85;1.55;;;;;;;21.09;44.70;99724.19;5021124;28;20064;-70
2023/11/06 09:47:51;;;;;;;2.22;1.50;;;;;;;21.12;44.56;99726.41;5025957;28;20098;-70
2023/11/06 09:50:22;;;;;;;2.50;1.83;;;;;;;21.12;44.52;99740.47;5019025;28;20633;-70
2023/11/06 09:52:49;;;;;;;2.35;1.63;;;;;;;21.13;44.70;99747.38;5025182;28;20045;-70
2023/11/06 09:55:20;;;;;;;1.35;1.25;;;;;;;21.07;44.81;99740.31;5022494;28;20037;-70
2023/11/06 09:57:50;;;;;;;2.45;1.52;;;;;;;21.08;44.47;99751.69;5028034;28;20037;-70
2023/11/06 10:00:17;;;;;;;1.80;1.20;;;;;;;21.11;44.45;99761.84;5026910;28;20484;-70
2023/11/06 10:02:48;;;;;;;2.08;1.27;;;;;;;21.06;44.98;99759.03;5009373;28;20069;-70
2023/11/06 10:05:15;;;;;;;1.90;1.45;;;;;;;21.10;44.82;99774.28;5024166;28;20041;-70
2023/11/06 10:07:45;;;;;;;1.85;1.63;;;;;;;21.05;44.62;99757.44;5024547;28;20033;-70
2023/11/06 10:10:12;;;;;;;1.90;1.42;;;;;;;21.08;44.84;99780.81;5033468;28;20155;-69
2023/11/06 10:12:38;;;;;;;1.95;1.55;;;;;;;21.01;44.75;99772.13;5024964;28;20036;-77
2023/11/06 10:15:06;;;;;;;3.55;1.27;;;;;;;20.92;45.18;99773.38;5026750;28;20853;-72
2023/11/06 10:17:33;;;;;;;3.80;1.63;;;;;;;21.01;45.32;99782.69;5020588;28;20151;-70
2023/11/06 10:20:06;;;;;;;4.60;1.67;;;;;;;20.99;44.99;99772.31;5038597;28;20472;-71
2023/11/06 10:22:33;;;;;;;2.30;1.55;;;;;;;20.97;45.00;99774.34;5020675;28;20056;-71
2023/11/06 10:24:58;;;;;;;2.08;1.60;;;;;;;21.07;44.97;99785.31;5026257;28;20041;-71
2023/11/06 10:27:29;;;;;;;2.05;1.30;;;;;;;21.06;45.02;99788.16;5022920;28;20410;-71
2023/11/06 10:30:04;;;;;;;2.47;1.60;;;;;;;20.96;44.74;99778.03;5023341;28;20255;-71
2023/11/06 10:32:29;;;;;;;1.58;1.48;;;;;;;20.96;45.04;99775.38;5019589;28;20674;-71
2023/11/06 10:35:19;;;;;;;1.60;1.40;;;;;;;21.03;45.00;99785.94;5026011;28;20045;-71
2023/11/06 10:37:46;;;;;;;4.03;1.50;;;;;;;21.00;44.68;99781.06;5018928;28;20171;-71
2023/11/06 10:40:19;;;;;;;2.40;1.60;;;;;;;20.96;44.98;99770.09;5019746;28;20116;-71
2023/11/06 10:42:48;;;;;;;1.70;1.55;;;;;;;21.02;44.93;99779.03;5020933;28;20045;-71
2023/11/06 10:45:18;;;;;;;2.85;1.20;;;;;;;21.08;44.91;99786.91;5017694;28;20418;-71
2023/11/06 10:47:53;;;;;;;2.90;1.60;;;;;;;21.09;44.69;99783.25;5024789;28;20756;-71
2023/11/06 10:50:20;;;;;;;2.13;1.48;;;;;;;21.08;45.00;99783.47;5025369;28;20041;-71
2023/11/06 10:52:53;;;;;;;3.45;1.63;;;;;;;21.08;44.86;99778.16;5022384;28;20049;-71
2023/11/06 10:55:20;;;;;;;1.95;1.50;;;;;;;21.02;44.85;99769.25;5027753;28;20056;-71
2023/11/06 10:57:51;;;;;;;2.05;1.33;;;;;;;21.04;44.73;99782.28;5022299;28;20040;-72
2023/11/06 11:00:20;;;;;;;1.77;1.50;;;;;;;21.06;44.80;99777.56;5025975;28;20149;-71
2023/11/06 11:02:49;;;;;;;5.93;1.83;;;;;;;21.08;44.96;99786.91;5031088;28;20079;-71
2023/11/06 11:05:17;;;;;;;2.65;1.48;;;;;;;21.02;44.92;99777.19;5039768;28;20145;-72
2023/11/06 11:07:45;;;;;;;4.40;1.30;;;;;;;21.09;44.65;99787.72;5032746;28;20045;-71
2023/11/06 11:10:14;;;;;;;2.80;1.70;;;;;;;21.07;44.71;99784.50;5026071;28;20086;-71
2023/11/06 11:12:40;;;;;;;2.22;1.38;;;;;;;20.88;44.68;99759.75;5020735;28;20048;-72
2023/11/06 11:15:08;;;;;;;1.48;1.27;;;;;;;20.97;44.75;99766.41;5026019;28;20040;-71
2023/11/06 11:17:34;;;;;;;1.92;1.55;;;;;;;20.98;44.72;99778.63;5028451;28;20376;-71
2023/11/06 11:20:05;;;;;;;2.70;1.50;;;;;;;20.95;44.57;99772.94;5027324;28;20041;-73
2023/11/06 11:22:32;;;;;;;1.95;1.35;;;;;;;21.06;44.98;99794.25;5021186;28;20069;-72
2023/11/06 11:24:59;;;;;;;2.38;1.45;;;;;;;21.06;44.82;99788.97;5025986;28;20048;-73
2023/11/06 11:27:30;;;;;;;1.50;1.40;;;;;;;20.97;44.61;99784.94;5021609;28;20041;-73
2023/11/06 11:29:56;;;;;;;2.75;1.70;;;;;;;21.10;44.76;99800.75;5023723;28;20084;-73